createdAt,value
2023-01-17T00:02:25.710Z,21.80
2023-01-17T00:05:11.265Z,20.45
2023-01-17T00:07:56.972Z,21.13
2023-01-17T00:10:26.501Z,24.33
2023-01-17T00:13:01.947Z,21.13
2023-01-17T00:15:31.135Z,24.80
2023-01-17T00:17:59.015Z,21.88
2023-01-17T00:20:46.627Z,20.13
2023-01-17T00:23:58.061Z,20.20
2023-01-17T00:26:25.284Z,19.85
2023-01-17T00:28:52.984Z,20.38
2023-01-17T00:31:20.570Z,18.55
2023-01-17T00:33:47.704Z,18.50
2023-01-17T00:36:14.665Z,18.67
2023-01-17T00:38:41.716Z,17.70
2023-01-17T00:41:11.723Z,19.35
2023-01-17T00:43:57.985Z,20.38
2023-01-17T00:46:43.446Z,18.70
2023-01-17T00:49:28.973Z,18.33
2023-01-17T00:52:14.437Z,19.45
2023-01-17T00:54:59.814Z,19.02
2023-01-17T00:57:45.414Z,18.33
2023-01-17T01:00:31.495Z,18.63
2023-01-17T01:03:17.236Z,19.90
2023-01-17T01:06:02.648Z,18.02
2023-01-17T01:08:49.458Z,18.17
2023-01-17T01:11:38.726Z,18.27
2023-01-17T01:14:26.650Z,19.27
2023-01-17T01:17:12.385Z,20.63
2023-01-17T01:19:57.822Z,17.13
2023-01-17T01:22:43.664Z,18.55
2023-01-17T01:25:28.934Z,17.30
2023-01-17T01:28:30.812Z,17.92
2023-01-17T01:31:20.761Z,17.05
2023-01-17T01:33:48.109Z,14.85
2023-01-17T01:36:15.043Z,13.82
2023-01-17T01:38:41.985Z,11.40
2023-01-17T01:41:08.936Z,12.55
2023-01-17T01:43:50.556Z,12.48
2023-01-17T01:46:30.393Z,12.20
2023-01-17T01:49:08.453Z,11.50
2023-01-17T01:51:40.380Z,6.93
2023-01-17T01:54:23.439Z,12.75
2023-01-17T01:56:54.008Z,9.07
2023-01-17T01:59:22.862Z,8.02
2023-01-17T02:01:52.958Z,9.82
2023-01-17T02:04:22.525Z,8.70
2023-01-17T02:06:56.169Z,10.13
2023-01-17T02:09:24.519Z,8.93
2023-01-17T02:11:51.564Z,8.38
2023-01-17T02:14:22.137Z,8.23
2023-01-17T02:17:18.604Z,8.77
2023-01-17T02:19:57.187Z,9.27
2023-01-17T02:22:54.401Z,9.88
2023-01-17T02:25:48.382Z,10.57
2023-01-17T02:28:27.243Z,8.60
2023-01-17T02:31:03.116Z,9.88
2023-01-17T02:34:00.597Z,8.82
2023-01-17T02:36:36.674Z,9.70
2023-01-17T02:39:21.635Z,9.77
2023-01-17T02:41:55.737Z,9.25
2023-01-17T02:44:23.000Z,10.77
2023-01-17T02:46:53.578Z,9.95
2023-01-17T02:49:24.708Z,10.13
2023-01-17T02:52:20.670Z,9.82
2023-01-17T02:54:50.381Z,10.90
2023-01-17T02:57:40.366Z,10.50
2023-01-17T03:00:31.022Z,10.73
2023-01-17T03:02:58.207Z,9.15
2023-01-17T03:05:32.725Z,9.73
2023-01-17T03:08:01.882Z,9.93
2023-01-17T03:10:31.628Z,9.88
2023-01-17T03:26:49.391Z,10.88
2023-01-17T03:29:19.810Z,10.55
2023-01-17T03:31:47.009Z,10.30
2023-01-17T03:34:14.035Z,11.23
2023-01-17T03:36:41.115Z,10.60
2023-01-17T03:39:08.293Z,9.73
2023-01-17T03:41:35.454Z,10.57
2023-01-17T03:44:02.603Z,9.30
2023-01-17T03:46:29.749Z,10.48
2023-01-17T03:48:56.858Z,10.52
2023-01-17T03:51:23.884Z,9.23
2023-01-17T03:53:52.153Z,9.85
2023-01-17T03:56:19.364Z,8.77
2023-01-17T03:58:46.420Z,9.25
2023-01-17T04:01:13.641Z,9.32
2023-01-17T04:03:40.931Z,8.60
2023-01-17T04:06:08.022Z,8.70
2023-01-17T04:08:35.016Z,8.80
2023-01-17T04:11:02.076Z,9.75
2023-01-17T04:13:29.166Z,7.90
2023-01-17T04:15:56.508Z,10.05
2023-01-17T04:18:24.778Z,8.77
2023-01-17T04:20:52.025Z,7.97
2023-01-17T04:23:19.263Z,7.60
2023-01-17T04:25:46.036Z,7.75
2023-01-17T04:28:13.222Z,8.15
2023-01-17T04:30:40.701Z,8.73
2023-01-17T04:33:07.707Z,7.72
2023-01-17T04:35:34.806Z,7.22
2023-01-17T04:38:01.858Z,8.50
2023-01-17T04:40:29.751Z,8.13
2023-01-17T04:42:58.034Z,8.18
2023-01-17T04:45:25.170Z,9.05
2023-01-17T04:47:52.232Z,8.50
2023-01-17T04:50:19.377Z,9.68
2023-01-17T04:52:46.288Z,8.85
2023-01-17T04:55:13.339Z,8.55
2023-01-17T04:57:40.388Z,8.65
2023-01-17T05:00:08.513Z,7.80
2023-01-17T05:02:35.591Z,8.98
2023-01-17T05:05:02.604Z,7.38
2023-01-17T05:07:29.633Z,7.47
2023-01-17T05:09:56.660Z,7.57
2023-01-17T05:12:23.629Z,7.47
2023-01-17T05:14:50.573Z,7.75
2023-01-17T05:17:17.622Z,8.80
2023-01-17T05:19:45.177Z,8.65
2023-01-17T05:22:16.348Z,8.93
2023-01-17T05:24:47.976Z,7.97
2023-01-17T05:27:15.667Z,7.38
2023-01-17T05:29:42.776Z,8.30
2023-01-17T05:32:09.918Z,7.88
2023-01-17T05:34:37.045Z,8.60
2023-01-17T05:37:04.029Z,7.30
2023-01-17T05:39:31.281Z,10.48
2023-01-17T05:41:59.275Z,8.90
2023-01-17T05:44:27.932Z,9.40
2023-01-17T05:46:55.410Z,9.48
2023-01-17T05:49:22.564Z,8.32
2023-01-17T05:51:49.780Z,8.52
2023-01-17T05:54:17.212Z,9.65
2023-01-17T05:56:44.081Z,8.35
2023-01-17T05:59:13.243Z,8.15
2023-01-17T06:01:41.230Z,9.93
2023-01-17T06:04:08.176Z,10.18
2023-01-17T06:06:35.237Z,11.50
2023-01-17T06:09:02.324Z,10.85
2023-01-17T06:11:29.354Z,9.80
2023-01-17T06:13:56.238Z,8.20
2023-01-17T06:16:23.369Z,9.15
2023-01-17T06:18:50.608Z,10.60
2023-01-17T06:21:17.676Z,9.05
2023-01-17T06:23:44.594Z,9.65
2023-01-17T06:26:11.709Z,10.20
2023-01-17T06:28:38.666Z,10.32
2023-01-17T06:31:09.503Z,8.63
2023-01-17T06:33:36.904Z,9.80
2023-01-17T06:36:04.312Z,9.80
2023-01-17T06:38:31.463Z,9.27
2023-01-17T06:41:00.478Z,9.18
2023-01-17T06:43:32.653Z,9.90
2023-01-17T06:46:01.080Z,9.48
2023-01-17T06:48:28.394Z,7.63
2023-01-17T06:50:58.086Z,8.13
2023-01-17T06:53:25.356Z,8.52
2023-01-17T06:55:55.288Z,8.63
2023-01-17T06:58:22.212Z,9.98
2023-01-17T07:00:49.714Z,8.77
2023-01-17T07:03:25.124Z,8.52
2023-01-17T07:05:53.217Z,9.15
2023-01-17T07:08:20.639Z,10.60
2023-01-17T07:10:48.707Z,10.40
2023-01-17T07:13:15.886Z,11.32
2023-01-17T07:15:42.876Z,11.18
2023-01-17T07:18:09.822Z,11.55
2023-01-17T07:20:38.555Z,10.38
2023-01-17T07:23:06.420Z,9.93
2023-01-17T07:25:33.374Z,10.57
2023-01-17T07:28:00.395Z,10.02
2023-01-17T07:30:27.501Z,9.55
2023-01-17T07:32:54.828Z,11.57
2023-01-17T07:35:22.638Z,11.00
2023-01-17T07:37:50.707Z,10.27
2023-01-17T07:40:19.113Z,8.05
2023-01-17T07:42:46.887Z,8.77
2023-01-17T07:45:16.113Z,9.02
2023-01-17T07:47:43.980Z,10.43
2023-01-17T07:50:11.523Z,13.68
2023-01-17T07:52:38.532Z,12.85
2023-01-17T07:55:06.313Z,10.93
2023-01-17T07:57:33.324Z,4.82
2023-01-17T08:00:00.244Z,8.80
2023-01-17T08:02:27.245Z,7.50
2023-01-17T08:04:54.242Z,7.50
2023-01-17T08:07:21.365Z,8.55
2023-01-17T08:09:50.357Z,7.72
2023-01-17T08:12:17.627Z,8.20
2023-01-17T08:14:45.097Z,8.45
2023-01-17T08:17:17.019Z,9.30
2023-01-17T08:19:45.072Z,10.38
2023-01-17T08:22:15.124Z,9.20
2023-01-17T08:24:42.281Z,9.02
2023-01-17T08:27:09.281Z,8.70
2023-01-17T08:29:36.773Z,9.73
2023-01-17T08:32:04.302Z,9.52
2023-01-17T08:34:33.496Z,9.05
2023-01-17T08:37:00.381Z,8.57
2023-01-17T08:39:27.911Z,8.93
2023-01-17T08:41:54.978Z,7.80
2023-01-17T08:44:22.083Z,8.90
2023-01-17T08:46:49.767Z,8.95
2023-01-17T08:49:16.745Z,9.15
2023-01-17T08:51:43.774Z,8.27
2023-01-17T08:54:13.004Z,8.48
2023-01-17T08:56:40.006Z,7.75
2023-01-17T08:59:07.005Z,10.40
2023-01-17T09:01:40.990Z,9.65
2023-01-17T09:06:41.381Z,11.30
2023-01-17T09:09:11.342Z,11.70
2023-01-17T09:11:38.594Z,10.82
2023-01-17T09:14:05.758Z,12.20
2023-01-17T09:16:32.720Z,15.05
2023-01-17T09:18:59.952Z,11.20
2023-01-17T09:21:27.267Z,11.07
2023-01-17T09:23:55.678Z,11.98
2023-01-17T09:26:27.954Z,11.35
2023-01-17T09:28:55.935Z,10.02
2023-01-17T09:31:23.980Z,9.63
2023-01-17T09:33:52.285Z,11.38
2023-01-17T09:36:19.517Z,9.25
2023-01-17T09:38:46.949Z,9.30
2023-01-17T09:41:43.604Z,8.68
2023-01-17T09:44:25.173Z,9.27
2023-01-17T09:47:00.208Z,8.02
2023-01-17T09:49:43.459Z,7.60
2023-01-17T09:52:17.770Z,10.45
2023-01-17T09:54:47.887Z,11.10
2023-01-17T09:57:36.344Z,11.63
2023-01-17T10:00:25.144Z,12.68
2023-01-17T10:03:34.026Z,11.68
2023-01-17T10:06:28.957Z,11.50
2023-01-17T10:09:24.116Z,11.82
2023-01-17T10:12:22.757Z,14.00
2023-01-17T10:15:16.564Z,11.48
2023-01-17T10:18:02.505Z,11.27
2023-01-17T10:20:54.294Z,10.77
2023-01-17T10:23:46.051Z,11.65
2023-01-17T10:26:18.811Z,11.18
2023-01-17T10:28:51.738Z,10.63
2023-01-17T10:31:21.795Z,10.30
2023-01-17T10:34:11.225Z,8.73
2023-01-17T10:36:42.085Z,9.15
2023-01-17T10:39:21.357Z,8.50
2023-01-17T10:41:58.680Z,10.05
2023-01-17T10:44:33.176Z,9.27
2023-01-17T10:47:20.352Z,9.30
2023-01-17T10:49:53.808Z,9.50
2023-01-17T10:52:48.103Z,9.55
2023-01-17T10:55:23.998Z,9.32
2023-01-17T10:57:53.248Z,10.00
2023-01-17T11:00:52.528Z,8.88
2023-01-17T11:03:24.058Z,11.20
2023-01-17T11:06:16.080Z,10.57
2023-01-17T11:09:07.046Z,12.88
2023-01-17T11:11:36.339Z,12.48
2023-01-17T11:14:14.427Z,13.52
2023-01-17T11:16:41.690Z,15.77
2023-01-17T11:19:17.471Z,17.23
2023-01-17T11:21:54.503Z,19.45
2023-01-17T11:24:30.547Z,17.92
2023-01-17T11:26:58.581Z,17.48
2023-01-17T11:29:36.865Z,18.90
2023-01-17T11:32:36.670Z,17.50
2023-01-17T11:35:15.758Z,18.80
2023-01-17T11:38:10.218Z,18.10
2023-01-17T11:40:41.527Z,17.33
2023-01-17T11:43:11.613Z,15.30
2023-01-17T11:45:41.795Z,14.15
2023-01-17T11:48:13.499Z,14.13
2023-01-17T11:50:59.909Z,13.45
2023-01-17T11:53:37.228Z,11.52
2023-01-17T11:56:11.708Z,12.85
2023-01-17T11:58:41.788Z,11.85
2023-01-17T12:01:17.282Z,12.05
2023-01-17T12:04:00.714Z,12.75
2023-01-17T12:06:58.036Z,11.68
2023-01-17T12:09:25.529Z,12.02
2023-01-17T12:12:35.608Z,12.45
2023-01-17T12:15:19.791Z,13.10
2023-01-17T12:18:09.180Z,9.95
2023-01-17T12:21:02.827Z,10.48
2023-01-17T12:23:48.595Z,10.38
2023-01-17T12:26:23.988Z,9.68
2023-01-17T12:29:20.074Z,9.93
2023-01-17T12:32:06.581Z,10.60
2023-01-17T12:34:37.480Z,10.95
2023-01-17T12:37:37.215Z,9.68
2023-01-17T12:40:25.391Z,10.13
2023-01-17T12:42:58.824Z,11.80
2023-01-17T12:45:33.879Z,11.52
2023-01-17T12:48:30.803Z,10.90
2023-01-17T12:51:21.815Z,11.05
2023-01-17T12:54:05.448Z,11.43
2023-01-17T12:56:46.276Z,13.38
2023-01-17T12:59:16.343Z,11.52
2023-01-17T13:01:58.780Z,13.55
2023-01-17T13:04:58.016Z,11.05
2023-01-17T13:07:49.670Z,10.98
2023-01-17T13:10:26.864Z,11.50
2023-01-17T13:12:59.285Z,11.98
2023-01-17T13:15:35.445Z,11.38
2023-01-17T13:18:26.090Z,10.77
2023-01-17T13:21:29.656Z,10.77
2023-01-17T13:24:31.477Z,10.90
2023-01-17T13:27:17.409Z,11.40
2023-01-17T13:30:10.226Z,10.73
2023-01-17T13:33:12.327Z,10.05
2023-01-17T13:35:46.701Z,10.20
2023-01-17T13:38:28.101Z,11.20
2023-01-17T13:41:01.460Z,10.52
2023-01-17T13:43:40.621Z,10.07
2023-01-17T13:46:08.944Z,9.60
2023-01-17T13:48:38.524Z,11.98
2023-01-17T13:51:08.091Z,11.32
2023-01-17T13:53:35.074Z,10.20
2023-01-17T13:56:14.459Z,10.30
2023-01-17T13:58:50.641Z,10.07
2023-01-17T14:01:24.255Z,10.70
2023-01-17T14:03:51.725Z,11.30
2023-01-17T14:06:44.871Z,11.50
2023-01-17T14:09:20.911Z,10.30
2023-01-17T14:11:52.668Z,10.95
2023-01-17T14:14:42.124Z,10.10
2023-01-17T14:17:20.368Z,10.02
2023-01-17T14:19:50.789Z,9.32
2023-01-17T14:22:20.951Z,10.15
2023-01-17T14:25:02.788Z,10.77
2023-01-17T14:27:34.735Z,9.60
2023-01-17T14:30:16.430Z,10.93
2023-01-17T14:33:02.368Z,9.13
2023-01-17T14:35:35.588Z,9.80
2023-01-17T14:38:05.649Z,10.43
2023-01-17T14:40:35.443Z,9.85
2023-01-17T14:43:14.341Z,9.40
2023-01-17T14:45:43.598Z,9.98
2023-01-17T14:48:29.499Z,11.27
2023-01-17T14:51:00.150Z,10.23
2023-01-17T14:53:32.004Z,10.25
2023-01-17T14:56:13.276Z,11.10
2023-01-17T14:58:41.355Z,9.82
2023-01-17T15:01:15.613Z,9.93
2023-01-17T15:03:50.179Z,9.82
2023-01-17T15:06:21.024Z,9.30
2023-01-17T15:08:50.182Z,8.25
2023-01-17T15:11:24.752Z,9.07
2023-01-17T15:29:00.452Z,10.07
2023-01-17T15:31:51.669Z,7.53
2023-01-17T15:34:43.285Z,6.63
2023-01-17T15:37:22.515Z,10.25
2023-01-17T15:39:49.711Z,15.50
2023-01-17T15:42:24.302Z,13.25
2023-01-17T15:44:57.895Z,6.97
2023-01-17T15:47:31.762Z,8.07
2023-01-17T15:50:00.294Z,8.15
2023-01-17T15:52:28.169Z,11.27
2023-01-17T15:57:39.883Z,8.63
2023-01-17T16:00:36.962Z,6.57
2023-01-17T16:03:29.443Z,6.82
2023-01-17T16:06:00.259Z,6.45
2023-01-17T16:08:32.516Z,7.40
2023-01-17T16:11:02.478Z,6.20
2023-01-17T16:13:32.187Z,7.10
2023-01-17T16:16:13.472Z,6.88
2023-01-17T16:18:40.959Z,6.28
2023-01-17T16:21:31.762Z,9.57
2023-01-17T16:23:59.916Z,6.90
2023-01-17T16:26:29.130Z,9.45
2023-01-17T16:28:56.459Z,9.88
2023-01-17T16:31:23.452Z,7.78
2023-01-17T16:33:50.801Z,6.78
2023-01-17T16:36:17.958Z,5.18
2023-01-17T16:38:45.966Z,4.70
2023-01-17T16:41:13.086Z,6.63
2023-01-17T16:43:40.247Z,6.50
2023-01-17T16:46:07.394Z,5.78
2023-01-17T16:48:34.416Z,6.03
2023-01-17T16:51:05.860Z,5.32
2023-01-17T16:53:32.776Z,4.85
2023-01-17T16:56:08.032Z,5.03
2023-01-17T16:58:35.120Z,5.15
2023-01-17T17:01:02.172Z,7.68
2023-01-17T17:03:29.840Z,5.60
2023-01-17T17:05:58.972Z,4.60
2023-01-17T17:08:28.914Z,5.05
2023-01-17T17:11:13.278Z,5.35
2023-01-17T17:13:45.196Z,5.93
2023-01-17T17:16:20.580Z,5.13
2023-01-17T17:18:55.389Z,8.85
2023-01-17T17:21:22.537Z,7.20
2023-01-17T17:23:56.806Z,5.43
2023-01-17T17:28:58.715Z,7.38
2023-01-17T17:31:26.125Z,6.15
2023-01-17T17:33:53.648Z,4.70
2023-01-17T17:36:20.914Z,4.95
2023-01-17T17:38:54.039Z,4.70
2023-01-17T17:41:23.850Z,5.80
2023-01-17T17:43:52.359Z,6.03
2023-01-17T17:46:21.043Z,5.05
2023-01-17T17:48:48.465Z,5.80
2023-01-17T17:51:31.579Z,5.68
2023-01-17T17:54:02.589Z,5.90
2023-01-17T17:56:31.382Z,5.15
2023-01-17T17:58:59.341Z,5.80
2023-01-17T18:01:26.663Z,4.68
2023-01-17T18:04:00.541Z,6.60
2023-01-17T18:06:27.591Z,6.50
2023-01-17T18:08:54.627Z,7.40
2023-01-17T18:11:24.200Z,6.85
2023-01-17T18:13:52.485Z,7.63
2023-01-17T18:16:22.309Z,8.70
2023-01-17T18:18:51.549Z,7.95
2023-01-17T18:21:25.331Z,8.13
2023-01-17T18:23:55.532Z,7.93
2023-01-17T18:26:28.572Z,8.23
2023-01-17T18:28:56.829Z,8.98
2023-01-17T18:31:25.433Z,9.52
2023-01-17T18:33:54.222Z,10.80
2023-01-17T18:36:23.454Z,9.98
2023-01-17T18:38:51.246Z,11.18
2023-01-17T18:41:23.932Z,10.60
2023-01-17T18:43:51.769Z,9.05
2023-01-17T18:46:20.276Z,8.98
2023-01-17T18:48:47.808Z,7.32
2023-01-17T18:51:17.151Z,6.80
2023-01-17T18:53:45.989Z,6.70
2023-01-17T18:56:16.038Z,9.73
2023-01-17T18:58:45.209Z,7.72
2023-01-17T19:01:18.559Z,9.93
2023-01-17T19:03:47.620Z,10.90
2023-01-17T19:06:18.006Z,20.92
2023-01-17T19:08:45.276Z,12.25
2023-01-17T19:11:12.873Z,10.15
2023-01-17T19:13:41.910Z,12.05
2023-01-17T19:16:13.991Z,9.65
2023-01-17T19:18:41.713Z,11.70
2023-01-17T19:21:14.191Z,9.82
2023-01-17T19:23:41.643Z,12.75
2023-01-17T19:26:09.667Z,11.52
2023-01-17T19:28:45.705Z,10.10
2023-01-17T19:31:27.439Z,11.43
2023-01-17T19:33:57.666Z,8.32
2023-01-17T19:36:31.290Z,8.45
2023-01-17T19:39:04.951Z,12.43
2023-01-17T19:41:34.581Z,7.25
2023-01-17T19:44:04.445Z,10.77
2023-01-17T19:46:32.475Z,8.13
2023-01-17T19:48:59.743Z,5.57
2023-01-17T19:51:27.254Z,6.18
2023-01-17T19:53:54.913Z,6.35
2023-01-17T19:56:24.929Z,7.43
2023-01-17T19:58:52.467Z,7.25
2023-01-17T20:01:22.695Z,6.68
2023-01-17T20:03:51.008Z,7.63
2023-01-17T20:06:21.528Z,8.05
2023-01-17T20:08:48.694Z,7.95
2023-01-17T20:11:18.704Z,8.43
2023-01-17T20:13:46.970Z,6.93
2023-01-17T20:16:16.678Z,6.55
2023-01-17T20:18:44.161Z,7.28
2023-01-17T20:21:14.153Z,8.88
2023-01-17T20:23:43.126Z,6.80
2023-01-17T20:26:15.436Z,6.47
2023-01-17T20:28:44.002Z,8.85
2023-01-17T20:31:20.219Z,8.57
2023-01-17T20:33:50.511Z,8.85
2023-01-17T20:36:18.739Z,10.40
2023-01-17T20:38:46.872Z,8.10
2023-01-17T20:41:40.465Z,9.98
2023-01-17T20:44:09.785Z,9.70
2023-01-17T20:46:41.229Z,10.70
2023-01-17T20:49:15.459Z,11.27
2023-01-17T20:54:14.486Z,10.65
2023-01-17T20:56:42.082Z,9.20
2023-01-17T20:59:13.079Z,8.90
2023-01-17T21:01:40.059Z,9.55
2023-01-17T21:04:10.245Z,9.13
2023-01-17T21:06:41.473Z,7.28
2023-01-17T21:09:12.484Z,8.98
2023-01-17T21:11:39.385Z,7.80
2023-01-17T21:14:06.662Z,8.55
2023-01-17T21:16:35.183Z,9.73
2023-01-17T21:19:02.791Z,9.70
2023-01-17T21:21:30.161Z,9.50
2023-01-17T21:23:58.993Z,10.65
2023-01-17T21:26:28.011Z,11.10
2023-01-17T21:28:55.776Z,8.68
2023-01-17T21:31:26.030Z,9.00
2023-01-17T21:33:58.618Z,8.60
2023-01-17T21:36:28.820Z,10.32
2023-01-17T21:38:58.509Z,9.02
2023-01-17T21:41:31.310Z,9.00
2023-01-17T21:44:01.027Z,8.15
2023-01-17T21:46:29.269Z,8.02
2023-01-17T21:48:57.695Z,8.55
2023-01-17T21:51:45.031Z,9.07
2023-01-17T21:54:11.944Z,9.38
2023-01-17T21:56:57.464Z,8.50
2023-01-17T21:59:24.576Z,9.70
2023-01-17T22:01:51.565Z,8.98
2023-01-17T22:04:18.497Z,7.63
2023-01-17T22:06:45.402Z,8.35
2023-01-17T22:09:12.351Z,8.40
2023-01-17T22:11:39.389Z,8.52
2023-01-17T22:14:07.522Z,7.75
2023-01-17T22:16:34.576Z,7.30
2023-01-17T22:19:01.559Z,7.03
2023-01-17T22:21:28.762Z,10.00
2023-01-17T22:23:58.355Z,7.32
2023-01-17T22:26:30.019Z,6.90
2023-01-17T22:29:00.346Z,7.32
2023-01-17T22:31:28.163Z,6.72
2023-01-17T22:34:01.817Z,6.78
2023-01-17T22:36:32.045Z,6.72
2023-01-17T22:38:59.040Z,6.32
2023-01-17T22:41:31.373Z,6.20
2023-01-17T22:44:00.004Z,5.97
2023-01-17T22:46:29.212Z,6.03
2023-01-17T22:48:57.204Z,5.85
2023-01-17T22:51:25.531Z,5.75
2023-01-17T22:53:57.868Z,5.47
2023-01-17T22:56:29.307Z,9.77
2023-01-17T22:58:56.551Z,6.13
2023-01-17T23:01:31.231Z,5.15
2023-01-17T23:04:04.178Z,5.50
2023-01-17T23:06:37.150Z,6.75
2023-01-17T23:09:07.134Z,5.38
2023-01-17T23:11:39.742Z,5.07
2023-01-17T23:14:52.735Z,5.88
2023-01-17T23:17:59.222Z,6.13
2023-01-17T23:20:26.154Z,6.43
2023-01-17T23:22:53.151Z,6.28
2023-01-17T23:25:20.359Z,5.10
2023-01-17T23:28:06.345Z,6.03
2023-01-17T23:30:36.966Z,5.32
2023-01-17T23:33:13.952Z,7.75
2023-01-17T23:35:43.484Z,5.43
2023-01-17T23:38:29.698Z,5.97
2023-01-17T23:41:26.457Z,6.13
2023-01-17T23:43:55.433Z,6.40
2023-01-17T23:46:24.205Z,6.00
2023-01-17T23:48:51.320Z,5.70
2023-01-17T23:51:18.616Z,6.10
2023-01-17T23:53:45.563Z,5.25
2023-01-17T23:56:19.071Z,4.78
2023-01-17T23:58:46.693Z,6.75
